MDL411 WICC-VHHH
Flight info
| Callsign | MDL411 |
|---|---|
| Flight time | 4h 14m |
| Altitude | 35000 |
| Route | CKG DCT AMBOY P648 BUKTU M772 DULOP Q1 CARSO V551 BETTY |
| Aircraft | A20N/M-SDE2E3FGHIRWXY/LB1 |
Departure
| Time | 2026-04-10 15:27 |
|---|---|
| Airport | Husein Sastranegara International Airport (WICC) |
Arrival
| Time | 2026-04-10 19:42 |
|---|---|
| Airport | Hong Kong International Airport (VHHH) |
| Time | Latitude | Longitude | Altitude | Speed | Heading |
|---|---|---|---|---|---|
| 2026-04-10 15:12 | -6.90299 | 107.57973 | 2442 ft | 0 kts | 188° |
| 2026-04-10 15:22 | -6.90300 | 107.57973 | 2442 ft | 0 kts | 188° |
| 2026-04-10 15:23 | -6.90308 | 107.57974 | 2442 ft | 2 kts | 160° |
| 2026-04-10 15:23 | -6.90322 | 107.57986 | 2442 ft | 4 kts | 127° |
| 2026-04-10 15:23 | -6.90330 | 107.58021 | 2442 ft | 7 kts | 88° |
| 2026-04-10 15:24 | -6.90324 | 107.58066 | 2442 ft | 6 kts | 79° |
| 2026-04-10 15:24 | -6.90292 | 107.58104 | 2442 ft | 9 kts | 28° |
| 2026-04-10 15:24 | -6.90260 | 107.58159 | 2442 ft | 11 kts | 100° |
| 2026-04-10 15:24 | -6.90285 | 107.58244 | 2442 ft | 15 kts | 109° |
| 2026-04-10 15:25 | -6.90322 | 107.58352 | 2442 ft | 18 kts | 109° |
| 2026-04-10 15:25 | -6.90367 | 107.58482 | 2442 ft | 21 kts | 109° |
| 2026-04-10 15:25 | -6.90414 | 107.58560 | 2442 ft | 8 kts | 77° |
| 2026-04-10 15:25 | -6.90384 | 107.58557 | 2442 ft | 4 kts | 287° |
| 2026-04-10 15:26 | -6.90384 | 107.58555 | 2442 ft | 0 kts | 287° |
| 2026-04-10 15:26 | -6.90382 | 107.58549 | 2442 ft | 11 kts | 287° |
| 2026-04-10 15:26 | -6.90285 | 107.58268 | 2442 ft | 72 kts | 287° |
| 2026-04-10 15:26 | -6.90058 | 107.57610 | 2442 ft | 126 kts | 289° |
| 2026-04-10 15:27 | -6.89729 | 107.56620 | 2456 ft | 169 kts | 287° |
| 2026-04-10 15:27 | -6.89371 | 107.55482 | 2929 ft | 169 kts | 285° |
| 2026-04-10 15:27 | -6.89052 | 107.54358 | 3510 ft | 167 kts | 284° |
| 2026-04-10 15:27 | -6.88748 | 107.53208 | 3977 ft | 172 kts | 283° |
| 2026-04-10 15:28 | -6.88433 | 107.52006 | 4265 ft | 187 kts | 287° |
| 2026-04-10 15:28 | -6.87883 | 107.50873 | 4460 ft | 201 kts | 300° |
| 2026-04-10 15:28 | -6.87158 | 107.49767 | 4573 ft | 218 kts | 303° |
| 2026-04-10 15:28 | -6.86269 | 107.48479 | 4830 ft | 232 kts | 304° |
| 2026-04-10 15:29 | -6.85307 | 107.47090 | 5074 ft | 252 kts | 304° |
| 2026-04-10 15:29 | -6.84272 | 107.45591 | 5401 ft | 271 kts | 305° |
| 2026-04-10 15:29 | -6.83168 | 107.43998 | 5821 ft | 284 kts | 305° |
| 2026-04-10 15:29 | -6.82024 | 107.42352 | 6444 ft | 289 kts | 306° |
| 2026-04-10 15:30 | -6.80861 | 107.40702 | 7184 ft | 294 kts | 306° |
| 2026-04-10 15:30 | -6.79670 | 107.39021 | 7966 ft | 294 kts | 306° |
| 2026-04-10 15:30 | -6.78499 | 107.37362 | 8806 ft | 292 kts | 305° |
| 2026-04-10 15:30 | -6.77503 | 107.35941 | 9336 ft | 295 kts | 305° |
| 2026-04-10 15:31 | -6.76327 | 107.34261 | 9933 ft | 299 kts | 305° |
| 2026-04-10 15:31 | -6.75085 | 107.32517 | 10341 ft | 313 kts | 306° |
| 2026-04-10 15:31 | -6.73790 | 107.30694 | 10620 ft | 330 kts | 305° |
| 2026-04-10 15:31 | -6.72432 | 107.28767 | 11009 ft | 345 kts | 305° |
| 2026-04-10 15:32 | -6.71031 | 107.26776 | 11599 ft | 353 kts | 305° |
| 2026-04-10 15:32 | -6.69611 | 107.24757 | 12350 ft | 356 kts | 305° |
| 2026-04-10 15:32 | -6.68188 | 107.22733 | 13142 ft | 358 kts | 305° |
| 2026-04-10 15:32 | -6.66745 | 107.20680 | 13889 ft | 360 kts | 305° |
| 2026-04-10 15:33 | -6.65288 | 107.18608 | 14576 ft | 364 kts | 305° |
| 2026-04-10 15:33 | -6.63821 | 107.16521 | 15246 ft | 368 kts | 305° |
| 2026-04-10 15:33 | -6.62324 | 107.14410 | 15786 ft | 376 kts | 306° |
| 2026-04-10 15:33 | -6.60780 | 107.12251 | 16304 ft | 384 kts | 307° |
| 2026-04-10 15:34 | -6.59041 | 107.10230 | 16941 ft | 386 kts | 321° |
| 2026-04-10 15:34 | -6.56753 | 107.08855 | 17637 ft | 384 kts | 341° |
| 2026-04-10 15:34 | -6.54162 | 107.08317 | 18280 ft | 382 kts | 0° |
| 2026-04-10 15:34 | -6.51534 | 107.08642 | 18850 ft | 383 kts | 15° |
| 2026-04-10 15:35 | -6.49030 | 107.09497 | 19382 ft | 387 kts | 24° |
| 2026-04-10 15:35 | -6.46537 | 107.10617 | 19959 ft | 392 kts | 27° |
| 2026-04-10 15:35 | -6.44081 | 107.11815 | 20603 ft | 395 kts | 28° |
| 2026-04-10 15:35 | -6.41617 | 107.13053 | 21253 ft | 397 kts | 27° |
| 2026-04-10 15:36 | -6.39143 | 107.14287 | 21857 ft | 399 kts | 26° |
| 2026-04-10 15:36 | -6.36638 | 107.15508 | 22327 ft | 405 kts | 26° |
| 2026-04-10 15:36 | -6.34073 | 107.16725 | 22756 ft | 411 kts | 25° |
| 2026-04-10 15:36 | -6.31479 | 107.17926 | 23229 ft | 416 kts | 25° |
| 2026-04-10 15:37 | -6.28823 | 107.19126 | 23767 ft | 419 kts | 24° |
| 2026-04-10 15:37 | -6.26158 | 107.20316 | 24334 ft | 421 kts | 24° |
| 2026-04-10 15:37 | -6.23488 | 107.21506 | 24884 ft | 422 kts | 24° |
| 2026-04-10 15:37 | -6.20803 | 107.22721 | 25388 ft | 426 kts | 25° |
| 2026-04-10 15:38 | -6.18709 | 107.23678 | 25751 ft | 431 kts | 25° |
| 2026-04-10 15:38 | -6.16104 | 107.24865 | 26205 ft | 436 kts | 24° |
| 2026-04-10 15:38 | -6.13351 | 107.26104 | 26725 ft | 439 kts | 24° |
| 2026-04-10 15:38 | -6.10548 | 107.27378 | 27276 ft | 441 kts | 25° |
| 2026-04-10 15:39 | -6.07758 | 107.28646 | 27841 ft | 443 kts | 24° |
| 2026-04-10 15:39 | -6.04946 | 107.29913 | 28378 ft | 442 kts | 24° |
| 2026-04-10 15:39 | -6.02141 | 107.31178 | 28793 ft | 444 kts | 24° |
| 2026-04-10 15:39 | -5.99313 | 107.32455 | 29065 ft | 449 kts | 24° |
| 2026-04-10 15:40 | -5.96465 | 107.33744 | 29289 ft | 455 kts | 24° |
| 2026-04-10 15:40 | -5.93568 | 107.35055 | 29561 ft | 459 kts | 24° |
| 2026-04-10 15:40 | -5.90650 | 107.36376 | 29925 ft | 460 kts | 24° |
| 2026-04-10 15:40 | -5.87745 | 107.37692 | 30334 ft | 461 kts | 24° |
| 2026-04-10 15:41 | -5.84830 | 107.39012 | 30729 ft | 461 kts | 24° |
| 2026-04-10 15:41 | -5.81903 | 107.40344 | 31107 ft | 461 kts | 24° |
| 2026-04-10 15:41 | -5.79010 | 107.41678 | 31477 ft | 462 kts | 24° |
| 2026-04-10 15:41 | -5.76078 | 107.43021 | 31846 ft | 462 kts | 24° |
| 2026-04-10 15:42 | -5.73156 | 107.44353 | 32250 ft | 462 kts | 24° |
| 2026-04-10 15:42 | -5.70246 | 107.45666 | 32695 ft | 459 kts | 23° |
| 2026-04-10 15:42 | -5.67338 | 107.46965 | 33135 ft | 456 kts | 23° |
| 2026-04-10 15:42 | -5.64451 | 107.48256 | 33532 ft | 455 kts | 24° |
| 2026-04-10 15:43 | -5.61601 | 107.49550 | 33875 ft | 454 kts | 24° |
| 2026-04-10 15:43 | -5.58726 | 107.50857 | 34184 ft | 453 kts | 24° |
| 2026-04-10 15:43 | -5.55855 | 107.52148 | 34484 ft | 453 kts | 23° |
| 2026-04-10 15:43 | -5.52992 | 107.53444 | 34760 ft | 452 kts | 24° |
| 2026-04-10 15:44 | -5.50124 | 107.54743 | 34913 ft | 452 kts | 23° |
| 2026-04-10 15:44 | -5.47267 | 107.56033 | 34966 ft | 451 kts | 24° |
| 2026-04-10 15:44 | -5.41584 | 107.58603 | 34967 ft | 449 kts | 24° |
| 2026-04-10 15:45 | -5.35900 | 107.61175 | 34968 ft | 449 kts | 24° |
| 2026-04-10 15:45 | -5.30210 | 107.63750 | 34971 ft | 449 kts | 24° |
| 2026-04-10 15:46 | -5.24529 | 107.66319 | 34968 ft | 449 kts | 24° |
| 2026-04-10 15:46 | -5.18833 | 107.68895 | 34967 ft | 449 kts | 24° |
| 2026-04-10 15:47 | -5.13147 | 107.71468 | 34967 ft | 449 kts | 24° |
| 2026-04-10 15:47 | -5.07481 | 107.74030 | 34966 ft | 449 kts | 24° |
| 2026-04-10 15:48 | -5.01786 | 107.76607 | 34965 ft | 449 kts | 24° |
| 2026-04-10 15:48 | -4.96099 | 107.79180 | 34966 ft | 449 kts | 24° |
| 2026-04-10 15:49 | -4.90430 | 107.81745 | 34966 ft | 449 kts | 24° |
| 2026-04-10 15:49 | -4.84717 | 107.84331 | 34967 ft | 449 kts | 24° |
| 2026-04-10 15:50 | -4.79041 | 107.86902 | 34971 ft | 452 kts | 24° |
| 2026-04-10 15:50 | -4.73337 | 107.89512 | 34969 ft | 452 kts | 24° |
| 2026-04-10 15:51 | -4.67626 | 107.92091 | 34992 ft | 450 kts | 24° |
| 2026-04-10 15:51 | -4.61924 | 107.94683 | 35002 ft | 451 kts | 24° |
| 2026-04-10 15:52 | -4.56244 | 107.97272 | 34997 ft | 455 kts | 24° |
| 2026-04-10 15:52 | -4.50382 | 107.99920 | 34979 ft | 469 kts | 24° |
| 2026-04-10 15:53 | -4.44373 | 108.02624 | 34985 ft | 480 kts | 24° |
| 2026-04-10 15:53 | -4.38283 | 108.05361 | 34990 ft | 482 kts | 24° |
| 2026-04-10 15:54 | -4.32161 | 108.08113 | 35000 ft | 482 kts | 24° |
| 2026-04-10 15:54 | -4.26044 | 108.10863 | 35008 ft | 482 kts | 24° |
| 2026-04-10 15:55 | -4.19965 | 108.13622 | 35009 ft | 482 kts | 24° |
| 2026-04-10 15:55 | -4.13880 | 108.16426 | 35007 ft | 482 kts | 27° |
| 2026-04-10 15:56 | -4.08206 | 108.19973 | 35008 ft | 482 kts | 37° |
| 2026-04-10 15:56 | -4.03038 | 108.24190 | 35002 ft | 482 kts | 41° |
| 2026-04-10 15:57 | -3.97977 | 108.28555 | 34995 ft | 482 kts | 40° |
| 2026-04-10 15:57 | -3.92799 | 108.32819 | 35007 ft | 482 kts | 38° |
| 2026-04-10 15:58 | -3.87529 | 108.36946 | 35011 ft | 482 kts | 38° |
| 2026-04-10 15:58 | -3.82224 | 108.41022 | 35011 ft | 482 kts | 38° |
| 2026-04-10 15:59 | -3.76934 | 108.45133 | 35011 ft | 482 kts | 38° |
| 2026-04-10 15:59 | -3.71681 | 108.49262 | 35011 ft | 482 kts | 38° |
| 2026-04-10 16:00 | -3.66431 | 108.53392 | 35011 ft | 482 kts | 38° |
| 2026-04-10 16:00 | -3.61141 | 108.57521 | 35011 ft | 482 kts | 38° |
| 2026-04-10 16:01 | -3.55878 | 108.61634 | 35011 ft | 482 kts | 38° |
| 2026-04-10 16:01 | -3.50602 | 108.65726 | 35011 ft | 482 kts | 38° |
| 2026-04-10 16:02 | -3.45324 | 108.69873 | 35011 ft | 482 kts | 38° |
| 2026-04-10 16:02 | -3.40053 | 108.73994 | 35011 ft | 482 kts | 38° |
| 2026-04-10 16:03 | -3.34782 | 108.78114 | 35011 ft | 482 kts | 38° |
| 2026-04-10 16:03 | -3.29515 | 108.82220 | 35011 ft | 482 kts | 38° |
| 2026-04-10 16:04 | -3.24243 | 108.86337 | 35011 ft | 482 kts | 38° |
| 2026-04-10 16:04 | -3.18958 | 108.90465 | 35009 ft | 482 kts | 38° |
| 2026-04-10 16:05 | -3.13691 | 108.94579 | 35011 ft | 482 kts | 38° |
| 2026-04-10 16:05 | -3.08432 | 108.98685 | 35011 ft | 482 kts | 38° |
| 2026-04-10 16:06 | -3.03143 | 109.02814 | 35011 ft | 482 kts | 38° |
| 2026-04-10 16:06 | -2.97895 | 109.06911 | 35011 ft | 482 kts | 38° |
| 2026-04-10 16:07 | -2.92598 | 109.11048 | 35011 ft | 482 kts | 38° |
| 2026-04-10 16:07 | -2.87350 | 109.15154 | 35011 ft | 480 kts | 38° |
| 2026-04-10 16:08 | -2.82162 | 109.19340 | 35011 ft | 480 kts | 39° |
| 2026-04-10 16:08 | -2.77029 | 109.23540 | 35011 ft | 480 kts | 39° |
| 2026-04-10 16:09 | -2.71817 | 109.27744 | 35011 ft | 480 kts | 39° |
| 2026-04-10 16:09 | -2.66625 | 109.31939 | 35011 ft | 480 kts | 39° |
| 2026-04-10 16:10 | -2.61455 | 109.36114 | 35011 ft | 480 kts | 39° |
| 2026-04-10 16:10 | -2.56263 | 109.40315 | 35011 ft | 480 kts | 39° |
| 2026-04-10 16:11 | -2.51090 | 109.44500 | 35011 ft | 480 kts | 39° |
| 2026-04-10 16:11 | -2.45920 | 109.48682 | 35011 ft | 480 kts | 39° |
| 2026-04-10 16:12 | -2.40719 | 109.52889 | 35011 ft | 480 kts | 39° |
| 2026-04-10 16:13 | -2.32956 | 109.59180 | 35011 ft | 480 kts | 39° |
| 2026-04-10 16:13 | -2.27805 | 109.63365 | 35011 ft | 480 kts | 39° |
| 2026-04-10 16:14 | -2.22595 | 109.67549 | 35011 ft | 480 kts | 38° |
| 2026-04-10 16:14 | -2.17411 | 109.71720 | 35011 ft | 480 kts | 39° |
| 2026-04-10 16:15 | -2.12230 | 109.75908 | 35011 ft | 480 kts | 39° |
| 2026-04-10 16:15 | -2.07049 | 109.80093 | 35011 ft | 480 kts | 39° |
| 2026-04-10 16:16 | -2.01867 | 109.84279 | 35011 ft | 480 kts | 39° |
| 2026-04-10 16:16 | -1.96687 | 109.88463 | 35011 ft | 480 kts | 39° |
| 2026-04-10 16:17 | -1.91525 | 109.92632 | 35011 ft | 480 kts | 39° |
| 2026-04-10 16:17 | -1.86316 | 109.96840 | 35011 ft | 480 kts | 39° |
| 2026-04-10 16:18 | -1.81142 | 110.01020 | 35011 ft | 480 kts | 39° |
| 2026-04-10 16:18 | -1.75966 | 110.05202 | 35011 ft | 480 kts | 39° |
| 2026-04-10 16:19 | -1.70781 | 110.09402 | 35011 ft | 480 kts | 39° |
| 2026-04-10 16:19 | -1.65599 | 110.13589 | 35011 ft | 480 kts | 38° |
| 2026-04-10 16:20 | -1.60323 | 110.17633 | 35011 ft | 480 kts | 37° |
| 2026-04-10 16:20 | -1.54987 | 110.21639 | 35011 ft | 480 kts | 37° |
| 2026-04-10 16:21 | -1.49656 | 110.25616 | 35011 ft | 480 kts | 37° |
| 2026-04-10 16:21 | -1.44327 | 110.29624 | 35011 ft | 480 kts | 37° |
| 2026-04-10 16:22 | -1.39052 | 110.33661 | 35011 ft | 480 kts | 37° |
| 2026-04-10 16:22 | -1.33740 | 110.37690 | 35011 ft | 480 kts | 37° |
| 2026-04-10 16:23 | -1.28380 | 110.41644 | 35011 ft | 480 kts | 32° |
| 2026-04-10 16:23 | -1.22528 | 110.44776 | 35012 ft | 480 kts | 24° |
| 2026-04-10 16:24 | -1.16349 | 110.47318 | 35012 ft | 480 kts | 21° |
| 2026-04-10 16:24 | -1.10146 | 110.49783 | 35011 ft | 480 kts | 22° |
| 2026-04-10 16:25 | -1.04042 | 110.52392 | 35011 ft | 480 kts | 24° |
| 2026-04-10 16:25 | -0.97955 | 110.55140 | 35011 ft | 480 kts | 25° |
| 2026-04-10 16:26 | -0.91886 | 110.57912 | 35013 ft | 480 kts | 25° |
| 2026-04-10 16:26 | -0.85838 | 110.60677 | 35010 ft | 480 kts | 25° |
| 2026-04-10 16:27 | -0.79779 | 110.63445 | 35016 ft | 481 kts | 24° |
| 2026-04-10 16:27 | -0.73705 | 110.66171 | 35010 ft | 479 kts | 24° |
| 2026-04-10 16:28 | -0.67759 | 110.68857 | 35011 ft | 479 kts | 24° |
| 2026-04-10 16:28 | -0.63005 | 110.71005 | 35011 ft | 479 kts | 24° |
| 2026-04-10 16:29 | -0.56917 | 110.73712 | 35011 ft | 479 kts | 24° |
| 2026-04-10 16:29 | -0.50872 | 110.76439 | 35011 ft | 479 kts | 24° |
| 2026-04-10 16:30 | -0.44796 | 110.79196 | 35011 ft | 479 kts | 24° |
| 2026-04-10 16:30 | -0.38737 | 110.81948 | 35011 ft | 479 kts | 24° |
| 2026-04-10 16:31 | -0.32686 | 110.84666 | 35011 ft | 479 kts | 24° |
| 2026-04-10 16:31 | -0.26605 | 110.87411 | 35011 ft | 479 kts | 24° |
| 2026-04-10 16:32 | -0.20550 | 110.90139 | 35011 ft | 479 kts | 24° |
| 2026-04-10 16:32 | -0.14483 | 110.92872 | 35011 ft | 479 kts | 24° |
| 2026-04-10 16:33 | -0.08416 | 110.95606 | 35016 ft | 480 kts | 24° |
| 2026-04-10 16:33 | -0.02351 | 110.98339 | 35010 ft | 479 kts | 24° |
| 2026-04-10 16:34 | 0.03731 | 111.01074 | 35014 ft | 480 kts | 24° |
| 2026-04-10 16:34 | 0.09798 | 111.03757 | 35009 ft | 479 kts | 24° |
| 2026-04-10 16:35 | 0.15867 | 111.06480 | 35010 ft | 479 kts | 24° |
| 2026-04-10 16:35 | 0.21927 | 111.09223 | 35010 ft | 479 kts | 24° |
| 2026-04-10 16:36 | 0.27995 | 111.11976 | 35010 ft | 479 kts | 24° |
| 2026-04-10 16:36 | 0.34038 | 111.14721 | 35010 ft | 479 kts | 24° |
| 2026-04-10 16:37 | 0.40060 | 111.17441 | 35010 ft | 479 kts | 24° |
| 2026-04-10 16:37 | 0.46175 | 111.20196 | 35010 ft | 479 kts | 24° |
| 2026-04-10 16:38 | 0.52233 | 111.22924 | 35012 ft | 480 kts | 24° |
| 2026-04-10 16:38 | 0.58295 | 111.25656 | 35009 ft | 479 kts | 24° |
| 2026-04-10 16:39 | 0.64366 | 111.28391 | 35008 ft | 479 kts | 24° |
| 2026-04-10 16:39 | 0.70429 | 111.31122 | 35007 ft | 479 kts | 24° |
| 2026-04-10 16:40 | 0.76510 | 111.33823 | 35002 ft | 479 kts | 24° |
| 2026-04-10 16:40 | 0.82571 | 111.36544 | 34996 ft | 479 kts | 24° |
| 2026-04-10 16:41 | 0.88629 | 111.39289 | 34993 ft | 479 kts | 24° |
| 2026-04-10 16:41 | 0.94687 | 111.42042 | 34985 ft | 479 kts | 25° |
| 2026-04-10 16:42 | 1.00758 | 111.44781 | 34982 ft | 479 kts | 24° |
| 2026-04-10 16:42 | 1.06836 | 111.47487 | 34976 ft | 479 kts | 24° |
| 2026-04-10 16:43 | 1.12893 | 111.50222 | 34973 ft | 480 kts | 24° |
| 2026-04-10 16:43 | 1.18974 | 111.52943 | 34966 ft | 479 kts | 24° |
| 2026-04-10 16:44 | 1.25038 | 111.55662 | 34962 ft | 480 kts | 24° |
| 2026-04-10 16:44 | 1.31151 | 111.58403 | 34955 ft | 482 kts | 24° |
| 2026-04-10 16:45 | 1.37256 | 111.61142 | 34948 ft | 482 kts | 24° |
| 2026-04-10 16:45 | 1.43350 | 111.63874 | 34944 ft | 482 kts | 24° |
| 2026-04-10 16:46 | 1.49466 | 111.66617 | 34937 ft | 482 kts | 24° |
| 2026-04-10 16:46 | 1.55562 | 111.69350 | 34928 ft | 482 kts | 24° |
| 2026-04-10 16:47 | 1.61680 | 111.72093 | 34917 ft | 482 kts | 24° |
| 2026-04-10 16:47 | 1.67780 | 111.74823 | 34912 ft | 482 kts | 24° |
| 2026-04-10 16:48 | 1.73889 | 111.77549 | 34907 ft | 482 kts | 24° |
| 2026-04-10 16:48 | 1.79995 | 111.80309 | 34900 ft | 482 kts | 24° |
| 2026-04-10 16:49 | 1.86115 | 111.83051 | 34894 ft | 482 kts | 24° |
| 2026-04-10 16:49 | 1.92222 | 111.85799 | 34890 ft | 482 kts | 24° |
| 2026-04-10 16:50 | 1.98329 | 111.88538 | 34885 ft | 482 kts | 24° |
| 2026-04-10 16:50 | 2.04437 | 111.91278 | 34882 ft | 482 kts | 24° |
| 2026-04-10 16:51 | 2.10537 | 111.94015 | 34878 ft | 482 kts | 24° |
| 2026-04-10 16:51 | 2.16658 | 111.96761 | 34875 ft | 482 kts | 24° |
| 2026-04-10 16:52 | 2.22762 | 111.99483 | 34880 ft | 483 kts | 24° |
| 2026-04-10 16:52 | 2.28937 | 112.02093 | 34875 ft | 482 kts | 21° |
| 2026-04-10 16:53 | 2.35227 | 112.04401 | 34877 ft | 483 kts | 19° |
| 2026-04-10 16:53 | 2.41535 | 112.06619 | 34877 ft | 483 kts | 19° |
| 2026-04-10 16:54 | 2.47838 | 112.08889 | 34878 ft | 483 kts | 20° |
| 2026-04-10 16:54 | 2.54120 | 112.11203 | 34879 ft | 483 kts | 20° |
| 2026-04-10 16:55 | 2.60401 | 112.13532 | 34880 ft | 483 kts | 20° |
| 2026-04-10 16:55 | 2.66679 | 112.15864 | 34883 ft | 482 kts | 20° |
| 2026-04-10 16:56 | 2.72966 | 112.18201 | 34884 ft | 483 kts | 20° |
| 2026-04-10 16:56 | 2.79233 | 112.20531 | 34884 ft | 482 kts | 20° |
| 2026-04-10 16:57 | 2.85509 | 112.22863 | 34881 ft | 482 kts | 20° |
| 2026-04-10 16:57 | 2.91788 | 112.25196 | 34879 ft | 482 kts | 20° |
| 2026-04-10 16:58 | 2.98065 | 112.27528 | 34878 ft | 482 kts | 20° |
| 2026-04-10 16:58 | 3.04336 | 112.29851 | 34875 ft | 478 kts | 20° |
| 2026-04-10 16:59 | 3.10554 | 112.32205 | 34875 ft | 482 kts | 20° |
| 2026-04-10 16:59 | 3.16800 | 112.34600 | 34874 ft | 481 kts | 20° |
| 2026-04-10 17:00 | 3.23044 | 112.37007 | 34877 ft | 482 kts | 20° |
| 2026-04-10 17:00 | 3.29266 | 112.39410 | 34874 ft | 481 kts | 20° |
| 2026-04-10 17:01 | 3.35494 | 112.41816 | 34875 ft | 481 kts | 20° |
| 2026-04-10 17:01 | 3.41727 | 112.44225 | 34875 ft | 481 kts | 20° |
| 2026-04-10 17:02 | 3.47959 | 112.46634 | 34875 ft | 481 kts | 20° |
| 2026-04-10 17:02 | 3.54195 | 112.49044 | 34878 ft | 482 kts | 20° |
| 2026-04-10 17:03 | 3.60424 | 112.51442 | 34874 ft | 481 kts | 20° |
| 2026-04-10 17:03 | 3.66672 | 112.53841 | 34876 ft | 481 kts | 20° |
| 2026-04-10 17:04 | 3.72912 | 112.56197 | 34876 ft | 481 kts | 20° |
| 2026-04-10 17:04 | 3.79155 | 112.58568 | 34876 ft | 481 kts | 20° |
| 2026-04-10 17:05 | 3.85389 | 112.60966 | 34876 ft | 481 kts | 20° |
| 2026-04-10 17:05 | 3.91623 | 112.63372 | 34877 ft | 481 kts | 20° |
| 2026-04-10 17:06 | 3.97864 | 112.65785 | 34877 ft | 481 kts | 20° |
| 2026-04-10 17:06 | 4.04100 | 112.68181 | 34877 ft | 481 kts | 19° |
| 2026-04-10 17:07 | 4.10405 | 112.70376 | 34878 ft | 481 kts | 18° |
| 2026-04-10 17:07 | 4.16748 | 112.72427 | 34878 ft | 481 kts | 17° |
| 2026-04-10 17:08 | 4.23108 | 112.74494 | 34878 ft | 481 kts | 17° |
| 2026-04-10 17:08 | 4.29432 | 112.76603 | 34878 ft | 481 kts | 18° |
| 2026-04-10 17:09 | 4.35747 | 112.78745 | 34878 ft | 481 kts | 18° |
| 2026-04-10 17:09 | 4.42057 | 112.80845 | 34878 ft | 474 kts | 18° |
| 2026-04-10 17:10 | 4.48330 | 112.82952 | 34879 ft | 480 kts | 19° |
| 2026-04-10 17:10 | 4.54714 | 112.85086 | 34879 ft | 487 kts | 19° |
| 2026-04-10 17:11 | 4.61105 | 112.87246 | 34879 ft | 486 kts | 20° |
| 2026-04-10 17:11 | 4.67492 | 112.89384 | 34879 ft | 486 kts | 19° |
| 2026-04-10 17:12 | 4.73891 | 112.91508 | 34880 ft | 486 kts | 19° |
| 2026-04-10 17:12 | 4.80307 | 112.93643 | 34880 ft | 486 kts | 20° |
| 2026-04-10 17:13 | 4.86690 | 112.95832 | 34880 ft | 486 kts | 20° |
| 2026-04-10 17:13 | 4.93059 | 112.98046 | 34880 ft | 486 kts | 20° |
| 2026-04-10 17:14 | 4.99419 | 113.00265 | 34881 ft | 486 kts | 20° |
| 2026-04-10 17:14 | 5.05808 | 113.02463 | 34881 ft | 486 kts | 20° |
| 2026-04-10 17:15 | 5.12174 | 113.04665 | 34881 ft | 486 kts | 20° |
| 2026-04-10 17:15 | 5.18571 | 113.06838 | 34882 ft | 486 kts | 20° |
| 2026-04-10 17:16 | 5.24952 | 113.09043 | 34881 ft | 486 kts | 20° |
| 2026-04-10 17:16 | 5.31309 | 113.11254 | 34881 ft | 486 kts | 20° |
| 2026-04-10 17:17 | 5.37679 | 113.13473 | 34883 ft | 486 kts | 20° |
| 2026-04-10 17:17 | 5.44061 | 113.15697 | 34883 ft | 486 kts | 20° |
| 2026-04-10 17:18 | 5.50432 | 113.17916 | 34883 ft | 486 kts | 20° |
| 2026-04-10 17:18 | 5.56793 | 113.20132 | 34883 ft | 486 kts | 20° |
| 2026-04-10 17:19 | 5.63163 | 113.22350 | 34883 ft | 486 kts | 20° |
| 2026-04-10 17:19 | 5.69547 | 113.24573 | 34884 ft | 486 kts | 20° |
| 2026-04-10 17:20 | 5.75919 | 113.26790 | 34884 ft | 486 kts | 20° |
| 2026-04-10 17:20 | 5.82282 | 113.29004 | 34884 ft | 486 kts | 20° |
| 2026-04-10 17:21 | 5.91869 | 113.32281 | 34884 ft | 486 kts | 20° |
| 2026-04-10 17:21 | 5.98233 | 113.34491 | 34884 ft | 486 kts | 21° |
| 2026-04-10 17:22 | 6.04562 | 113.36824 | 34884 ft | 486 kts | 22° |
| 2026-04-10 17:22 | 6.10872 | 113.39231 | 34884 ft | 486 kts | 22° |
| 2026-04-10 17:23 | 6.17166 | 113.41656 | 34884 ft | 486 kts | 22° |
| 2026-04-10 17:23 | 6.23446 | 113.44082 | 34885 ft | 485 kts | 22° |
| 2026-04-10 17:24 | 6.29742 | 113.46484 | 34886 ft | 485 kts | 22° |
| 2026-04-10 17:24 | 6.36052 | 113.48849 | 34882 ft | 485 kts | 22° |
| 2026-04-10 17:25 | 6.42345 | 113.51254 | 34885 ft | 485 kts | 23° |
| 2026-04-10 17:25 | 6.48733 | 113.53418 | 34896 ft | 486 kts | 20° |
| 2026-04-10 17:26 | 6.55066 | 113.55746 | 34889 ft | 485 kts | 24° |
| 2026-04-10 17:26 | 6.61302 | 113.58260 | 34884 ft | 484 kts | 24° |
| 2026-04-10 17:27 | 6.67561 | 113.60749 | 34885 ft | 485 kts | 23° |
| 2026-04-10 17:27 | 6.73865 | 113.63155 | 34885 ft | 485 kts | 22° |
| 2026-04-10 17:28 | 6.80168 | 113.65511 | 34887 ft | 485 kts | 22° |
| 2026-04-10 17:28 | 6.86479 | 113.67870 | 34889 ft | 485 kts | 22° |
| 2026-04-10 17:29 | 6.92789 | 113.70276 | 34891 ft | 485 kts | 22° |
| 2026-04-10 17:29 | 6.99096 | 113.72654 | 34893 ft | 485 kts | 22° |
| 2026-04-10 17:30 | 7.05387 | 113.75033 | 34893 ft | 485 kts | 22° |
| 2026-04-10 17:30 | 7.11690 | 113.77419 | 34893 ft | 485 kts | 22° |
| 2026-04-10 17:31 | 7.12740 | 113.77818 | 34893 ft | 485 kts | 22° |
| 2026-04-10 17:32 | 7.37113 | 113.87066 | 34893 ft | 485 kts | 22° |
| 2026-04-10 17:33 | 7.43424 | 113.89463 | 34894 ft | 485 kts | 22° |
| 2026-04-10 17:33 | 7.49724 | 113.91856 | 34894 ft | 485 kts | 22° |
| 2026-04-10 17:34 | 7.56014 | 113.94244 | 34894 ft | 485 kts | 22° |
| 2026-04-10 17:34 | 7.62329 | 113.96641 | 34893 ft | 485 kts | 22° |
| 2026-04-10 17:35 | 7.68630 | 113.99034 | 34892 ft | 485 kts | 22° |
| 2026-04-10 17:35 | 7.74929 | 114.01420 | 34891 ft | 486 kts | 23° |
| 2026-04-10 17:36 | 7.81239 | 114.03807 | 34887 ft | 486 kts | 23° |
| 2026-04-10 17:36 | 7.87568 | 114.06206 | 34885 ft | 486 kts | 23° |
| 2026-04-10 17:37 | 7.93876 | 114.08605 | 34885 ft | 486 kts | 23° |
| 2026-04-10 17:37 | 8.00195 | 114.10993 | 34885 ft | 486 kts | 23° |
| 2026-04-10 17:38 | 8.06496 | 114.13390 | 34885 ft | 486 kts | 23° |
| 2026-04-10 17:38 | 8.12807 | 114.15793 | 34885 ft | 486 kts | 23° |
| 2026-04-10 17:39 | 8.19117 | 114.18199 | 34885 ft | 486 kts | 23° |
| 2026-04-10 17:39 | 8.25439 | 114.20604 | 34885 ft | 487 kts | 24° |
| 2026-04-10 17:40 | 8.31732 | 114.23025 | 34885 ft | 486 kts | 24° |
| 2026-04-10 17:40 | 8.38041 | 114.25464 | 34885 ft | 486 kts | 24° |
| 2026-04-10 17:41 | 8.44364 | 114.27861 | 34885 ft | 487 kts | 24° |
| 2026-04-10 17:41 | 8.50687 | 114.30280 | 34884 ft | 486 kts | 24° |
| 2026-04-10 17:42 | 8.57003 | 114.32660 | 34884 ft | 487 kts | 24° |
| 2026-04-10 17:42 | 8.63316 | 114.35071 | 34884 ft | 486 kts | 24° |
| 2026-04-10 17:43 | 8.69640 | 114.37510 | 34884 ft | 486 kts | 24° |
| 2026-04-10 17:43 | 8.75939 | 114.39931 | 34884 ft | 487 kts | 24° |
| 2026-04-10 17:44 | 8.82255 | 114.42342 | 34886 ft | 487 kts | 24° |
| 2026-04-10 17:44 | 8.88569 | 114.44760 | 34883 ft | 486 kts | 24° |
| 2026-04-10 17:45 | 8.94883 | 114.47178 | 34884 ft | 486 kts | 24° |
| 2026-04-10 17:45 | 9.01199 | 114.49593 | 34884 ft | 486 kts | 24° |
| 2026-04-10 17:46 | 9.07526 | 114.52012 | 34884 ft | 486 kts | 24° |
| 2026-04-10 17:46 | 9.13831 | 114.54423 | 34884 ft | 486 kts | 24° |
| 2026-04-10 17:47 | 9.20148 | 114.56840 | 34884 ft | 486 kts | 24° |
| 2026-04-10 17:47 | 9.26476 | 114.59230 | 34884 ft | 487 kts | 23° |
| 2026-04-10 17:48 | 9.32808 | 114.61627 | 34884 ft | 486 kts | 24° |
| 2026-04-10 17:48 | 9.39122 | 114.64052 | 34884 ft | 486 kts | 24° |
| 2026-04-10 17:49 | 9.45416 | 114.66479 | 34884 ft | 486 kts | 24° |
| 2026-04-10 17:49 | 9.51718 | 114.68912 | 34884 ft | 486 kts | 24° |
| 2026-04-10 17:50 | 9.58037 | 114.71352 | 34884 ft | 486 kts | 24° |
| 2026-04-10 17:50 | 9.64326 | 114.73781 | 34883 ft | 486 kts | 24° |
| 2026-04-10 17:51 | 9.70645 | 114.76221 | 34883 ft | 486 kts | 24° |
| 2026-04-10 17:51 | 9.76944 | 114.78641 | 34883 ft | 486 kts | 24° |
| 2026-04-10 17:52 | 9.83383 | 114.80725 | 34883 ft | 490 kts | 14° |
| 2026-04-10 17:52 | 9.90184 | 114.81369 | 34885 ft | 495 kts | 2° |
| 2026-04-10 17:53 | 9.97073 | 114.80969 | 34884 ft | 497 kts | 357° |
| 2026-04-10 17:53 | 10.03943 | 114.80362 | 34882 ft | 497 kts | 358° |
| 2026-04-10 17:54 | 10.10828 | 114.79972 | 34887 ft | 497 kts | 0° |
| 2026-04-10 17:54 | 10.17714 | 114.79800 | 34881 ft | 495 kts | 2° |
| 2026-04-10 17:55 | 10.24594 | 114.79690 | 34883 ft | 496 kts | 2° |
| 2026-04-10 17:55 | 10.31459 | 114.79572 | 34883 ft | 496 kts | 1° |
| 2026-04-10 17:56 | 10.38353 | 114.79387 | 34883 ft | 496 kts | 1° |
| 2026-04-10 17:56 | 10.45223 | 114.79190 | 34883 ft | 496 kts | 1° |
| 2026-04-10 17:57 | 10.52115 | 114.79034 | 34882 ft | 496 kts | 1° |
| 2026-04-10 17:57 | 10.59018 | 114.78862 | 34887 ft | 497 kts | 0° |
| 2026-04-10 17:58 | 10.65902 | 114.78688 | 34878 ft | 496 kts | 1° |
| 2026-04-10 17:58 | 10.72798 | 114.78529 | 34882 ft | 497 kts | 0° |
| 2026-04-10 17:59 | 10.79679 | 114.78340 | 34882 ft | 497 kts | 0° |
| 2026-04-10 17:59 | 10.86583 | 114.78174 | 34882 ft | 497 kts | 0° |
| 2026-04-10 18:00 | 10.93462 | 114.77990 | 34882 ft | 497 kts | 0° |
| 2026-04-10 18:00 | 11.00356 | 114.77818 | 34882 ft | 497 kts | 0° |
| 2026-04-10 18:01 | 11.07246 | 114.77640 | 34882 ft | 497 kts | 0° |
| 2026-04-10 18:01 | 11.14138 | 114.77465 | 34882 ft | 497 kts | 0° |
| 2026-04-10 18:02 | 11.21028 | 114.77291 | 34882 ft | 497 kts | 0° |
| 2026-04-10 18:02 | 11.27919 | 114.77113 | 34882 ft | 496 kts | 0° |
| 2026-04-10 18:03 | 11.34819 | 114.76892 | 34882 ft | 497 kts | 0° |
| 2026-04-10 18:03 | 11.41710 | 114.76654 | 34882 ft | 497 kts | 0° |
| 2026-04-10 18:04 | 11.47138 | 114.76487 | 34883 ft | 497 kts | 0° |
| 2026-04-10 18:04 | 11.54029 | 114.76258 | 34882 ft | 497 kts | 0° |
| 2026-04-10 18:05 | 11.60919 | 114.76033 | 34883 ft | 497 kts | 0° |
| 2026-04-10 18:05 | 11.67806 | 114.75812 | 34883 ft | 497 kts | 0° |
| 2026-04-10 18:06 | 11.74698 | 114.75590 | 34883 ft | 497 kts | 0° |
| 2026-04-10 18:06 | 11.81585 | 114.75368 | 34883 ft | 497 kts | 0° |
| 2026-04-10 18:07 | 11.88477 | 114.75138 | 34887 ft | 497 kts | 0° |
| 2026-04-10 18:07 | 11.95382 | 114.74915 | 34879 ft | 496 kts | 0° |
| 2026-04-10 18:08 | 12.02262 | 114.74691 | 34885 ft | 496 kts | 0° |
| 2026-04-10 18:08 | 12.09150 | 114.74463 | 34885 ft | 496 kts | 0° |
| 2026-04-10 18:09 | 12.19462 | 114.74128 | 34892 ft | 496 kts | 360° |
| 2026-04-10 18:10 | 12.26355 | 114.73905 | 34891 ft | 496 kts | 0° |
| 2026-04-10 18:10 | 12.33221 | 114.73674 | 34892 ft | 496 kts | 0° |
| 2026-04-10 18:11 | 12.40117 | 114.73447 | 34898 ft | 497 kts | 0° |
| 2026-04-10 18:11 | 12.47001 | 114.73222 | 34889 ft | 495 kts | 0° |
| 2026-04-10 18:12 | 12.53865 | 114.72997 | 34890 ft | 496 kts | 0° |
| 2026-04-10 18:12 | 12.60741 | 114.72775 | 34893 ft | 496 kts | 360° |
| 2026-04-10 18:13 | 12.67634 | 114.72551 | 34893 ft | 496 kts | 0° |
| 2026-04-10 18:13 | 12.74505 | 114.72323 | 34893 ft | 496 kts | 0° |
| 2026-04-10 18:14 | 12.81393 | 114.72095 | 34894 ft | 496 kts | 0° |
| 2026-04-10 18:14 | 12.88276 | 114.71856 | 34893 ft | 496 kts | 0° |
| 2026-04-10 18:15 | 12.95143 | 114.71646 | 34894 ft | 496 kts | 0° |
| 2026-04-10 18:15 | 13.02020 | 114.71413 | 34894 ft | 496 kts | 0° |
| 2026-04-10 18:16 | 13.08915 | 114.71195 | 34894 ft | 496 kts | 0° |
| 2026-04-10 18:16 | 13.15794 | 114.70964 | 34895 ft | 496 kts | 0° |
| 2026-04-10 18:17 | 13.22673 | 114.70735 | 34898 ft | 496 kts | 0° |
| 2026-04-10 18:17 | 13.29541 | 114.70511 | 34901 ft | 496 kts | 360° |
| 2026-04-10 18:18 | 13.36418 | 114.70290 | 34903 ft | 493 kts | 0° |
| 2026-04-10 18:18 | 13.39792 | 114.70173 | 34902 ft | 480 kts | 359° |
| 2026-04-10 18:18 | 13.43119 | 114.70055 | 34902 ft | 478 kts | 358° |
| 2026-04-10 18:19 | 13.49767 | 114.69815 | 34904 ft | 480 kts | 358° |
| 2026-04-10 18:19 | 13.56411 | 114.69574 | 34905 ft | 480 kts | 358° |
| 2026-04-10 18:20 | 13.63069 | 114.69384 | 34906 ft | 480 kts | 359° |
| 2026-04-10 18:20 | 13.69724 | 114.69182 | 34905 ft | 480 kts | 358° |
| 2026-04-10 18:21 | 13.76390 | 114.68949 | 34915 ft | 481 kts | 358° |
| 2026-04-10 18:21 | 13.83059 | 114.68707 | 34914 ft | 480 kts | 358° |
| 2026-04-10 18:22 | 13.89706 | 114.68467 | 34909 ft | 479 kts | 359° |
| 2026-04-10 18:22 | 13.96348 | 114.68259 | 34914 ft | 476 kts | 358° |
| 2026-04-10 18:23 | 14.02986 | 114.68053 | 34914 ft | 483 kts | 357° |
| 2026-04-10 18:23 | 14.09700 | 114.67834 | 34921 ft | 483 kts | 357° |
| 2026-04-10 18:24 | 14.16404 | 114.67615 | 34929 ft | 483 kts | 357° |
| 2026-04-10 18:24 | 14.23114 | 114.67394 | 34932 ft | 484 kts | 357° |
| 2026-04-10 18:25 | 14.29822 | 114.67172 | 34932 ft | 483 kts | 357° |
| 2026-04-10 18:25 | 14.36542 | 114.66949 | 34934 ft | 484 kts | 357° |
| 2026-04-10 18:26 | 14.43236 | 114.66720 | 34934 ft | 484 kts | 357° |
| 2026-04-10 18:26 | 14.49957 | 114.66493 | 34934 ft | 484 kts | 357° |
| 2026-04-10 18:27 | 14.56667 | 114.66267 | 34934 ft | 484 kts | 357° |
| 2026-04-10 18:27 | 14.63364 | 114.66040 | 34939 ft | 484 kts | 357° |
| 2026-04-10 18:28 | 14.70076 | 114.65811 | 34930 ft | 483 kts | 357° |
| 2026-04-10 18:28 | 14.76778 | 114.65581 | 34933 ft | 484 kts | 357° |
| 2026-04-10 18:29 | 14.83491 | 114.65350 | 34939 ft | 484 kts | 357° |
| 2026-04-10 18:29 | 14.90199 | 114.65118 | 34930 ft | 483 kts | 357° |
| 2026-04-10 18:30 | 14.96901 | 114.64885 | 34934 ft | 484 kts | 357° |
| 2026-04-10 18:30 | 15.03626 | 114.64650 | 34937 ft | 484 kts | 357° |
| 2026-04-10 18:31 | 15.10331 | 114.64446 | 34932 ft | 483 kts | 358° |
| 2026-04-10 18:31 | 15.17046 | 114.64271 | 34931 ft | 483 kts | 357° |
| 2026-04-10 18:32 | 15.23739 | 114.64054 | 34933 ft | 483 kts | 357° |
| 2026-04-10 18:32 | 15.30460 | 114.63820 | 34934 ft | 484 kts | 357° |
| 2026-04-10 18:33 | 15.37168 | 114.63580 | 34934 ft | 484 kts | 357° |
| 2026-04-10 18:33 | 15.43875 | 114.63339 | 34934 ft | 484 kts | 357° |
| 2026-04-10 18:34 | 15.50582 | 114.63095 | 34934 ft | 484 kts | 357° |
| 2026-04-10 18:34 | 15.57290 | 114.62849 | 34934 ft | 484 kts | 357° |
| 2026-04-10 18:35 | 15.64005 | 114.62630 | 34937 ft | 484 kts | 357° |
| 2026-04-10 18:35 | 15.70697 | 114.62399 | 34931 ft | 483 kts | 357° |
| 2026-04-10 18:36 | 15.77408 | 114.62177 | 34939 ft | 484 kts | 357° |
| 2026-04-10 18:36 | 15.84122 | 114.61948 | 34930 ft | 483 kts | 357° |
| 2026-04-10 18:37 | 15.90821 | 114.61763 | 34932 ft | 483 kts | 358° |
| 2026-04-10 18:37 | 15.97531 | 114.61546 | 34934 ft | 484 kts | 357° |
| 2026-04-10 18:38 | 16.04251 | 114.61391 | 34931 ft | 483 kts | 359° |
| 2026-04-10 18:38 | 16.10966 | 114.61595 | 34934 ft | 484 kts | 2° |
| 2026-04-10 18:39 | 16.17670 | 114.61932 | 34935 ft | 484 kts | 2° |
| 2026-04-10 18:39 | 16.24379 | 114.62225 | 34933 ft | 484 kts | 1° |
| 2026-04-10 18:40 | 16.31093 | 114.62468 | 34934 ft | 484 kts | 1° |
| 2026-04-10 18:40 | 16.37823 | 114.62666 | 34933 ft | 484 kts | 1° |
| 2026-04-10 18:41 | 16.44533 | 114.62883 | 34933 ft | 484 kts | 1° |
| 2026-04-10 18:41 | 16.51238 | 114.63105 | 34934 ft | 485 kts | 1° |
| 2026-04-10 18:42 | 16.57985 | 114.63297 | 34933 ft | 485 kts | 1° |
| 2026-04-10 18:42 | 16.64711 | 114.63481 | 34934 ft | 485 kts | 1° |
| 2026-04-10 18:43 | 16.71444 | 114.63715 | 34934 ft | 485 kts | 1° |
| 2026-04-10 18:43 | 16.78196 | 114.63912 | 34934 ft | 485 kts | 1° |
| 2026-04-10 18:44 | 16.84928 | 114.64137 | 34934 ft | 485 kts | 2° |
| 2026-04-10 18:44 | 16.91647 | 114.64357 | 34988 ft | 484 kts | 1° |
| 2026-04-10 18:45 | 16.98382 | 114.64573 | 35024 ft | 485 kts | 1° |
| 2026-04-10 18:45 | 17.05083 | 114.64786 | 35025 ft | 485 kts | 1° |
| 2026-04-10 18:46 | 17.11830 | 114.65003 | 35048 ft | 484 kts | 1° |
| 2026-04-10 18:46 | 17.18550 | 114.65220 | 35048 ft | 484 kts | 1° |
| 2026-04-10 18:47 | 17.25259 | 114.65437 | 35049 ft | 484 kts | 1° |
| 2026-04-10 18:47 | 17.32036 | 114.65639 | 35052 ft | 489 kts | 1° |
| 2026-04-10 18:48 | 17.38799 | 114.65857 | 35052 ft | 488 kts | 1° |
| 2026-04-10 18:48 | 17.45583 | 114.66082 | 35052 ft | 488 kts | 1° |
| 2026-04-10 18:49 | 17.52356 | 114.66287 | 35052 ft | 488 kts | 0° |
| 2026-04-10 18:49 | 17.59119 | 114.66485 | 35052 ft | 488 kts | 1° |
| 2026-04-10 18:50 | 17.65902 | 114.66701 | 35052 ft | 488 kts | 1° |
| 2026-04-10 18:50 | 17.72677 | 114.66921 | 35052 ft | 488 kts | 1° |
| 2026-04-10 18:51 | 17.79453 | 114.67142 | 35052 ft | 488 kts | 1° |
| 2026-04-10 18:51 | 17.86221 | 114.67363 | 35052 ft | 485 kts | 0° |
| 2026-04-10 18:52 | 17.92842 | 114.67583 | 35052 ft | 476 kts | 358° |
| 2026-04-10 18:52 | 17.99414 | 114.67797 | 35052 ft | 472 kts | 356° |
| 2026-04-10 18:53 | 18.05930 | 114.68003 | 35051 ft | 469 kts | 356° |
| 2026-04-10 18:53 | 18.12442 | 114.68189 | 35052 ft | 470 kts | 356° |
| 2026-04-10 18:54 | 18.18949 | 114.68408 | 35052 ft | 470 kts | 356° |
| 2026-04-10 18:54 | 18.25481 | 114.68630 | 35054 ft | 470 kts | 356° |
| 2026-04-10 18:55 | 18.32000 | 114.68848 | 35051 ft | 469 kts | 356° |
| 2026-04-10 18:55 | 18.38512 | 114.69035 | 35054 ft | 470 kts | 356° |
| 2026-04-10 18:56 | 18.45049 | 114.69259 | 35050 ft | 469 kts | 356° |
| 2026-04-10 18:56 | 18.51553 | 114.69468 | 35052 ft | 470 kts | 356° |
| 2026-04-10 18:57 | 18.58074 | 114.69681 | 35054 ft | 470 kts | 356° |
| 2026-04-10 18:57 | 18.64589 | 114.69891 | 35051 ft | 470 kts | 356° |
| 2026-04-10 18:58 | 18.70764 | 114.70093 | 35052 ft | 470 kts | 356° |
| 2026-04-10 18:58 | 18.77295 | 114.70061 | 35052 ft | 467 kts | 352° |
| 2026-04-10 18:59 | 18.83735 | 114.69669 | 35052 ft | 465 kts | 351° |
| 2026-04-10 18:59 | 18.90185 | 114.69213 | 35052 ft | 465 kts | 351° |
| 2026-04-10 19:00 | 18.96635 | 114.68823 | 35052 ft | 466 kts | 351° |
| 2026-04-10 19:00 | 19.03095 | 114.68472 | 35056 ft | 467 kts | 352° |
| 2026-04-10 19:01 | 19.09568 | 114.68156 | 35050 ft | 466 kts | 352° |
| 2026-04-10 19:01 | 19.16022 | 114.67823 | 35052 ft | 466 kts | 352° |
| 2026-04-10 19:02 | 19.22486 | 114.67498 | 35052 ft | 466 kts | 352° |
| 2026-04-10 19:02 | 19.28952 | 114.67168 | 35052 ft | 466 kts | 352° |
| 2026-04-10 19:03 | 19.35411 | 114.66842 | 35056 ft | 467 kts | 352° |
| 2026-04-10 19:03 | 19.41882 | 114.66517 | 35048 ft | 465 kts | 352° |
| 2026-04-10 19:04 | 19.48362 | 114.66230 | 35051 ft | 466 kts | 352° |
| 2026-04-10 19:04 | 19.54823 | 114.65920 | 35052 ft | 466 kts | 352° |
| 2026-04-10 19:05 | 19.61285 | 114.65581 | 35052 ft | 466 kts | 352° |
| 2026-04-10 19:05 | 19.67736 | 114.65232 | 35052 ft | 466 kts | 351° |
| 2026-04-10 19:06 | 19.74197 | 114.64879 | 35052 ft | 466 kts | 351° |
| 2026-04-10 19:06 | 19.80668 | 114.64539 | 35052 ft | 466 kts | 352° |
| 2026-04-10 19:07 | 19.87114 | 114.64208 | 35052 ft | 466 kts | 352° |
| 2026-04-10 19:07 | 19.93582 | 114.63879 | 35052 ft | 466 kts | 352° |
| 2026-04-10 19:08 | 20.00061 | 114.63549 | 35052 ft | 466 kts | 352° |
| 2026-04-10 19:08 | 20.06509 | 114.63220 | 35052 ft | 466 kts | 352° |
| 2026-04-10 19:09 | 20.12988 | 114.62891 | 35052 ft | 466 kts | 352° |
| 2026-04-10 19:09 | 20.19445 | 114.62573 | 35052 ft | 466 kts | 352° |
| 2026-04-10 19:10 | 20.25918 | 114.62257 | 35052 ft | 466 kts | 352° |
| 2026-04-10 19:10 | 20.32371 | 114.61904 | 35052 ft | 466 kts | 351° |
| 2026-04-10 19:11 | 20.38828 | 114.61564 | 35052 ft | 466 kts | 352° |
| 2026-04-10 19:11 | 20.45147 | 114.61248 | 34732 ft | 443 kts | 351° |
| 2026-04-10 19:11 | 20.48197 | 114.61098 | 34204 ft | 434 kts | 351° |
| 2026-04-10 19:12 | 20.51181 | 114.60954 | 33656 ft | 427 kts | 351° |
| 2026-04-10 19:12 | 20.54108 | 114.60816 | 33105 ft | 420 kts | 351° |
| 2026-04-10 19:12 | 20.57001 | 114.60679 | 32552 ft | 413 kts | 351° |
| 2026-04-10 19:12 | 20.59853 | 114.60525 | 32008 ft | 408 kts | 351° |
| 2026-04-10 19:13 | 20.62675 | 114.60364 | 31445 ft | 405 kts | 351° |
| 2026-04-10 19:13 | 20.65469 | 114.60215 | 30891 ft | 400 kts | 351° |
| 2026-04-10 19:13 | 20.68229 | 114.60076 | 30339 ft | 395 kts | 351° |
| 2026-04-10 19:13 | 20.70943 | 114.59944 | 29790 ft | 391 kts | 351° |
| 2026-04-10 19:14 | 20.73637 | 114.59816 | 29240 ft | 386 kts | 351° |
| 2026-04-10 19:14 | 20.76288 | 114.59673 | 28692 ft | 382 kts | 351° |
| 2026-04-10 19:14 | 20.78927 | 114.59519 | 28140 ft | 377 kts | 350° |
| 2026-04-10 19:14 | 20.81528 | 114.59376 | 27590 ft | 374 kts | 351° |
| 2026-04-10 19:15 | 20.84042 | 114.59246 | 27054 ft | 370 kts | 351° |
| 2026-04-10 19:15 | 20.86665 | 114.59106 | 26494 ft | 366 kts | 351° |
| 2026-04-10 19:15 | 20.89188 | 114.58984 | 25953 ft | 363 kts | 351° |
| 2026-04-10 19:15 | 20.91691 | 114.58866 | 25401 ft | 359 kts | 351° |
| 2026-04-10 19:16 | 20.94159 | 114.58734 | 24851 ft | 355 kts | 351° |
| 2026-04-10 19:16 | 20.96611 | 114.58595 | 24301 ft | 352 kts | 351° |
| 2026-04-10 19:16 | 20.99049 | 114.58461 | 23751 ft | 352 kts | 350° |
| 2026-04-10 19:16 | 21.01486 | 114.58333 | 23191 ft | 353 kts | 351° |
| 2026-04-10 19:17 | 21.06356 | 114.58083 | 21960 ft | 349 kts | 350° |
| 2026-04-10 19:17 | 21.08773 | 114.57948 | 21337 ft | 347 kts | 350° |
| 2026-04-10 19:17 | 21.11173 | 114.57822 | 20717 ft | 345 kts | 351° |
| 2026-04-10 19:18 | 21.13559 | 114.57701 | 20094 ft | 343 kts | 352° |
| 2026-04-10 19:18 | 21.15937 | 114.57584 | 19469 ft | 342 kts | 353° |
| 2026-04-10 19:18 | 21.18311 | 114.57474 | 18844 ft | 340 kts | 353° |
| 2026-04-10 19:18 | 21.20657 | 114.57357 | 18224 ft | 338 kts | 353° |
| 2026-04-10 19:19 | 21.23004 | 114.57226 | 17600 ft | 337 kts | 352° |
| 2026-04-10 19:19 | 21.25329 | 114.57102 | 17110 ft | 331 kts | 353° |
| 2026-04-10 19:19 | 21.27544 | 114.56985 | 17051 ft | 313 kts | 352° |
| 2026-04-10 19:19 | 21.29690 | 114.56872 | 17051 ft | 315 kts | 352° |
| 2026-04-10 19:20 | 21.31954 | 114.56741 | 17069 ft | 338 kts | 352° |
| 2026-04-10 19:20 | 21.34326 | 114.56614 | 17062 ft | 344 kts | 353° |
| 2026-04-10 19:20 | 21.36716 | 114.56496 | 17054 ft | 345 kts | 353° |
| 2026-04-10 19:20 | 21.39104 | 114.56384 | 17052 ft | 344 kts | 353° |
| 2026-04-10 19:21 | 21.41495 | 114.56274 | 17052 ft | 344 kts | 353° |
| 2026-04-10 19:21 | 21.43882 | 114.56155 | 17052 ft | 344 kts | 353° |
| 2026-04-10 19:21 | 21.46259 | 114.56018 | 17050 ft | 340 kts | 352° |
| 2026-04-10 19:21 | 21.48552 | 114.55861 | 16917 ft | 323 kts | 349° |
| 2026-04-10 19:22 | 21.50725 | 114.55446 | 16500 ft | 313 kts | 342° |
| 2026-04-10 19:22 | 21.52789 | 114.54819 | 16066 ft | 306 kts | 338° |
| 2026-04-10 19:22 | 21.54788 | 114.54088 | 15623 ft | 302 kts | 336° |
| 2026-04-10 19:22 | 21.56744 | 114.53327 | 15174 ft | 298 kts | 336° |
| 2026-04-10 19:23 | 21.58675 | 114.52554 | 14721 ft | 295 kts | 336° |
| 2026-04-10 19:23 | 21.60590 | 114.51787 | 14265 ft | 294 kts | 338° |
| 2026-04-10 19:23 | 21.62543 | 114.51183 | 13821 ft | 295 kts | 346° |
| 2026-04-10 19:23 | 21.64611 | 114.51100 | 13396 ft | 298 kts | 357° |
| 2026-04-10 19:24 | 21.66653 | 114.50914 | 13114 ft | 297 kts | 347° |
| 2026-04-10 19:24 | 21.68676 | 114.50428 | 13031 ft | 299 kts | 342° |
| 2026-04-10 19:24 | 21.70681 | 114.49822 | 13008 ft | 300 kts | 341° |
| 2026-04-10 19:24 | 21.72710 | 114.49176 | 13013 ft | 312 kts | 341° |
| 2026-04-10 19:25 | 21.74801 | 114.48525 | 13005 ft | 315 kts | 341° |
| 2026-04-10 19:25 | 21.76913 | 114.47900 | 13001 ft | 315 kts | 342° |
| 2026-04-10 19:25 | 21.79035 | 114.47303 | 13000 ft | 315 kts | 343° |
| 2026-04-10 19:25 | 21.81145 | 114.46739 | 13000 ft | 315 kts | 343° |
| 2026-04-10 19:26 | 21.83275 | 114.46192 | 13000 ft | 315 kts | 344° |
| 2026-04-10 19:26 | 21.85412 | 114.45650 | 13000 ft | 315 kts | 344° |
| 2026-04-10 19:26 | 21.87524 | 114.45119 | 12994 ft | 308 kts | 344° |
| 2026-04-10 19:26 | 21.89563 | 114.44612 | 12829 ft | 296 kts | 344° |
| 2026-04-10 19:27 | 21.91570 | 114.44115 | 12294 ft | 297 kts | 344° |
| 2026-04-10 19:27 | 21.93575 | 114.43618 | 11771 ft | 300 kts | 344° |
| 2026-04-10 19:27 | 21.95609 | 114.43112 | 11212 ft | 302 kts | 344° |
| 2026-04-10 19:27 | 21.97652 | 114.42602 | 10666 ft | 303 kts | 344° |
| 2026-04-10 19:28 | 21.99706 | 114.42090 | 10114 ft | 304 kts | 344° |
| 2026-04-10 19:28 | 22.01709 | 114.41587 | 9539 ft | 284 kts | 345° |
| 2026-04-10 19:28 | 22.03596 | 114.41119 | 9009 ft | 274 kts | 345° |
| 2026-04-10 19:28 | 22.05435 | 114.40660 | 8635 ft | 273 kts | 345° |
| 2026-04-10 19:29 | 22.07292 | 114.40190 | 8261 ft | 274 kts | 345° |
| 2026-04-10 19:29 | 22.09147 | 114.39725 | 7890 ft | 275 kts | 345° |
| 2026-04-10 19:29 | 22.11002 | 114.39265 | 7519 ft | 275 kts | 345° |
| 2026-04-10 19:29 | 22.12865 | 114.38797 | 7143 ft | 276 kts | 345° |
| 2026-04-10 19:30 | 22.14736 | 114.38322 | 6771 ft | 277 kts | 345° |
| 2026-04-10 19:30 | 22.16619 | 114.37839 | 6398 ft | 278 kts | 345° |
| 2026-04-10 19:30 | 22.18487 | 114.37359 | 6128 ft | 275 kts | 345° |
| 2026-04-10 19:30 | 22.20313 | 114.36890 | 6025 ft | 265 kts | 345° |
| 2026-04-10 19:31 | 22.22065 | 114.36443 | 5999 ft | 253 kts | 345° |
| 2026-04-10 19:31 | 22.23752 | 114.36014 | 6015 ft | 250 kts | 345° |
| 2026-04-10 19:31 | 22.25440 | 114.35583 | 6004 ft | 252 kts | 345° |
| 2026-04-10 19:31 | 22.27142 | 114.35149 | 6002 ft | 253 kts | 345° |
| 2026-04-10 19:32 | 22.28857 | 114.34713 | 6001 ft | 253 kts | 345° |
| 2026-04-10 19:32 | 22.30549 | 114.34289 | 5996 ft | 250 kts | 345° |
| 2026-04-10 19:32 | 22.32240 | 114.33870 | 5999 ft | 250 kts | 345° |
| 2026-04-10 19:32 | 22.33927 | 114.33445 | 6000 ft | 250 kts | 345° |
| 2026-04-10 19:33 | 22.35597 | 114.32937 | 5989 ft | 249 kts | 335° |
| 2026-04-10 19:33 | 22.37051 | 114.31979 | 6003 ft | 242 kts | 319° |
| 2026-04-10 19:33 | 22.38216 | 114.30732 | 5794 ft | 236 kts | 308° |
| 2026-04-10 19:33 | 22.39177 | 114.29283 | 5340 ft | 240 kts | 294° |
| 2026-04-10 19:34 | 22.39683 | 114.27568 | 4917 ft | 242 kts | 278° |
| 2026-04-10 19:34 | 22.39811 | 114.25843 | 4572 ft | 216 kts | 267° |
| 2026-04-10 19:34 | 22.39716 | 114.24345 | 4573 ft | 189 kts | 261° |
| 2026-04-10 19:34 | 22.39512 | 114.22966 | 4512 ft | 184 kts | 257° |
| 2026-04-10 19:35 | 22.39249 | 114.21616 | 4507 ft | 185 kts | 255° |
| 2026-04-10 19:35 | 22.38968 | 114.20300 | 4490 ft | 176 kts | 254° |
| 2026-04-10 19:35 | 22.38711 | 114.19091 | 4521 ft | 152 kts | 254° |
| 2026-04-10 19:35 | 22.38484 | 114.18020 | 4438 ft | 146 kts | 253° |
| 2026-04-10 19:36 | 22.38245 | 114.16937 | 4503 ft | 150 kts | 253° |
| 2026-04-10 19:36 | 22.37961 | 114.15838 | 4383 ft | 152 kts | 249° |
| 2026-04-10 19:36 | 22.37638 | 114.14767 | 4145 ft | 150 kts | 249° |
| 2026-04-10 19:36 | 22.37319 | 114.13701 | 3966 ft | 150 kts | 249° |
| 2026-04-10 19:37 | 22.36999 | 114.12630 | 3778 ft | 150 kts | 248° |
| 2026-04-10 19:37 | 22.36672 | 114.11568 | 3548 ft | 148 kts | 248° |
| 2026-04-10 19:37 | 22.36349 | 114.10521 | 3343 ft | 148 kts | 248° |
| 2026-04-10 19:37 | 22.36024 | 114.09472 | 3139 ft | 148 kts | 248° |
| 2026-04-10 19:38 | 22.35686 | 114.08425 | 2947 ft | 148 kts | 247° |
| 2026-04-10 19:38 | 22.35343 | 114.07376 | 2721 ft | 148 kts | 247° |
| 2026-04-10 19:38 | 22.35000 | 114.06336 | 2525 ft | 147 kts | 246° |
| 2026-04-10 19:38 | 22.34652 | 114.05295 | 2285 ft | 151 kts | 245° |
| 2026-04-10 19:39 | 22.34290 | 114.04198 | 2038 ft | 159 kts | 247° |
| 2026-04-10 19:39 | 22.33929 | 114.03067 | 1817 ft | 160 kts | 248° |
| 2026-04-10 19:39 | 22.33571 | 114.01934 | 1592 ft | 160 kts | 248° |
| 2026-04-10 19:39 | 22.33214 | 114.00804 | 1408 ft | 158 kts | 248° |
| 2026-04-10 19:40 | 22.32861 | 113.99684 | 1305 ft | 159 kts | 248° |
| 2026-04-10 19:40 | 22.32505 | 113.98557 | 1097 ft | 160 kts | 248° |
| 2026-04-10 19:40 | 22.32146 | 113.97425 | 913 ft | 157 kts | 248° |
| 2026-04-10 19:40 | 22.31794 | 113.96308 | 704 ft | 157 kts | 248° |
| 2026-04-10 19:41 | 22.31424 | 113.95206 | 496 ft | 158 kts | 247° |
| 2026-04-10 19:41 | 22.31042 | 113.94105 | 271 ft | 157 kts | 246° |
| 2026-04-10 19:41 | 22.30662 | 113.93010 | 35 ft | 149 kts | 247° |
| 2026-04-10 19:41 | 22.30409 | 113.92235 | 31 ft | 76 kts | 248° |
| 2026-04-10 19:42 | 22.30258 | 113.91768 | 31 ft | 56 kts | 248° |
| 2026-04-10 19:42 | 22.30150 | 113.91438 | 31 ft | 33 kts | 251° |
| 2026-04-10 19:42 | 22.30117 | 113.91220 | 31 ft | 26 kts | 269° |
| 2026-04-10 19:42 | 22.30123 | 113.91148 | 31 ft | 5 kts | 279° |
| 2026-04-10 19:43 | 22.30125 | 113.91134 | 31 ft | 1 kts | 279° |
| 2026-04-10 19:43 | 22.30129 | 113.91116 | 31 ft | 3 kts | 282° |
| 2026-04-10 19:43 | 22.30141 | 113.91075 | 31 ft | 8 kts | 297° |
| 2026-04-10 19:43 | 22.30176 | 113.91051 | 31 ft | 7 kts | 9° |
| 2026-04-10 19:44 | 22.30210 | 113.91088 | 31 ft | 7 kts | 65° |
| 2026-04-10 19:44 | 22.30227 | 113.91140 | 31 ft | 7 kts | 71° |
| 2026-04-10 19:44 | 22.30247 | 113.91202 | 31 ft | 10 kts | 70° |
| 2026-04-10 19:44 | 22.30275 | 113.91284 | 31 ft | 13 kts | 69° |
| 2026-04-10 19:45 | 22.30307 | 113.91377 | 31 ft | 14 kts | 70° |
| 2026-04-10 19:45 | 22.30340 | 113.91476 | 31 ft | 14 kts | 70° |
| 2026-04-10 19:45 | 22.30371 | 113.91571 | 31 ft | 14 kts | 70° |
| 2026-04-10 19:45 | 22.30403 | 113.91668 | 31 ft | 14 kts | 70° |
| 2026-04-10 19:46 | 22.30433 | 113.91762 | 31 ft | 13 kts | 71° |
| 2026-04-10 19:46 | 22.30458 | 113.91840 | 31 ft | 12 kts | 71° |
| 2026-04-10 19:46 | 22.30482 | 113.91913 | 31 ft | 10 kts | 71° |
| 2026-04-10 19:46 | 22.30501 | 113.91974 | 31 ft | 10 kts | 71° |
| 2026-04-10 19:47 | 22.30521 | 113.92034 | 31 ft | 10 kts | 71° |
| 2026-04-10 19:47 | 22.30543 | 113.92104 | 31 ft | 11 kts | 71° |
| 2026-04-10 19:47 | 22.30567 | 113.92174 | 31 ft | 6 kts | 65° |
| 2026-04-10 19:47 | 22.30587 | 113.92199 | 31 ft | 5 kts | 27° |
| 2026-04-10 19:48 | 22.30652 | 113.92195 | 31 ft | 14 kts | 344° |
| 2026-04-10 19:48 | 22.30759 | 113.92157 | 31 ft | 19 kts | 342° |
| 2026-04-10 19:48 | 22.30900 | 113.92106 | 31 ft | 24 kts | 340° |
| 2026-04-10 19:48 | 22.31064 | 113.92045 | 31 ft | 25 kts | 342° |
| 2026-04-10 19:49 | 22.31222 | 113.91985 | 31 ft | 22 kts | 341° |
| 2026-04-10 19:49 | 22.31332 | 113.91945 | 31 ft | 15 kts | 341° |
| 2026-04-10 19:49 | 22.31417 | 113.91915 | 31 ft | 13 kts | 342° |
| 2026-04-10 19:49 | 22.31498 | 113.91934 | 31 ft | 13 kts | 56° |
| 2026-04-10 19:50 | 22.31530 | 113.92028 | 31 ft | 15 kts | 71° |
| 2026-04-10 19:50 | 22.31566 | 113.92141 | 31 ft | 16 kts | 70° |
| 2026-04-10 19:50 | 22.31603 | 113.92252 | 31 ft | 16 kts | 70° |
| 2026-04-10 19:50 | 22.31639 | 113.92365 | 31 ft | 16 kts | 71° |
| 2026-04-10 19:51 | 22.31674 | 113.92473 | 31 ft | 15 kts | 70° |
| 2026-04-10 19:51 | 22.31701 | 113.92552 | 31 ft | 13 kts | 70° |
| 2026-04-10 19:51 | 22.31732 | 113.92647 | 31 ft | 16 kts | 71° |
| 2026-04-10 19:51 | 22.31767 | 113.92759 | 31 ft | 16 kts | 71° |
| 2026-04-10 19:52 | 22.31765 | 113.92859 | 31 ft | 11 kts | 137° |
| 2026-04-10 19:52 | 22.31717 | 113.92884 | 31 ft | 9 kts | 158° |
| 2026-04-10 19:52 | 22.31693 | 113.92917 | 31 ft | 5 kts | 80° |
| 2026-04-10 19:52 | 22.31702 | 113.92949 | 31 ft | 4 kts | 70° |
| 2026-04-10 19:53 | 22.31706 | 113.92962 | 31 ft | 1 kts | 72° |
| 2026-04-10 19:53 | 22.31707 | 113.92965 | 31 ft | 0 kts | 70° |